Time;durP1;ratioP1;P1;durP2;ratioP2;P2;SDS_P1;SDS_P2;PMS_P1;PMS_P2;Temp;Humidity;BMP_temperature;BMP_pressure;BME280_temperature;BME280_humidity;BME280_pressure;Samples;Min_cycle;Max_cycle;Signal;HPM_P1;HPM_P2
2021/01/11 00:01:06;;;;;;;36.78;16.02;;;-0.20;99.90;;;;;;4986940;28;20451;-64
2021/01/11 00:03:31;;;;;;;35.93;17.27;;;-0.20;99.90;;;;;;4989437;28;20534;-60
2021/01/11 00:05:57;;;;;;;37.20;17.60;;;-0.20;99.90;;;;;;4988279;28;20022;-61
2021/01/11 00:08:22;;;;;;;38.65;17.75;;;-0.20;99.90;;;;;;4989211;28;20019;-58
2021/01/11 00:10:50;;;;;;;41.27;16.83;;;-0.20;99.90;;;;;;4973816;28;20055;-64
2021/01/11 00:13:15;;;;;;;38.80;17.90;;;-0.20;99.90;;;;;;4988684;28;20028;-58
2021/01/11 00:15:41;;;;;;;37.97;18.85;;;-0.20;99.90;;;;;;4987758;28;20018;-61
2021/01/11 00:18:06;;;;;;;37.63;18.30;;;-0.20;99.90;;;;;;4988236;28;20015;-61
2021/01/11 00:20:32;;;;;;;37.30;18.25;;;-0.20;99.90;;;;;;4986212;28;20033;-61
2021/01/11 00:22:57;;;;;;;36.88;18.60;;;-0.20;99.90;;;;;;4981340;28;20034;-58
2021/01/11 00:25:23;;;;;;;38.80;19.35;;;-0.20;99.90;;;;;;4984016;28;20033;-64
2021/01/11 00:27:49;;;;;;;41.33;20.30;;;-0.20;99.90;;;;;;4982902;28;20030;-62
2021/01/11 00:30:16;;;;;;;39.50;18.30;;;-0.30;99.90;;;;;;4988825;28;20030;-66
2021/01/11 00:32:41;;;;;;;44.25;21.10;;;-0.30;99.90;;;;;;4987882;28;20384;-64
2021/01/11 00:35:08;;;;;;;50.60;21.90;;;-0.30;99.90;;;;;;4988561;28;20030;-62
2021/01/11 00:37:34;;;;;;;45.03;21.23;;;-0.30;99.90;;;;;;4988656;28;20037;-63
2021/01/11 00:39:59;;;;;;;48.35;22.10;;;-0.40;99.90;;;;;;4988387;28;20097;-65
2021/01/11 00:42:25;;;;;;;42.05;20.58;;;-0.40;99.90;;;;;;4988704;28;20022;-64
2021/01/11 00:44:51;;;;;;;45.83;20.77;;;-0.40;99.90;;;;;;4988004;28;20045;-63
2021/01/11 00:47:16;;;;;;;41.65;20.23;;;-0.40;99.90;;;;;;4988263;28;20025;-64
2021/01/11 00:49:42;;;;;;;41.10;18.25;;;-0.40;99.90;;;;;;4983852;28;20027;-59
2021/01/11 00:52:07;;;;;;;34.30;17.45;;;-0.30;99.90;;;;;;4988746;28;20049;-63
2021/01/11 00:54:33;;;;;;;35.47;18.60;;;-0.30;99.90;;;;;;4987304;28;20034;-61
2021/01/11 00:56:59;;;;;;;39.17;17.25;;;-0.30;99.90;;;;;;5003502;28;20034;-56
2021/01/11 00:59:25;;;;;;;39.78;18.70;;;-0.30;99.90;;;;;;4987277;28;20476;-61
2021/01/11 01:01:53;;;;;;;38.25;17.98;;;-0.30;99.90;;;;;;4988331;28;20035;-62
2021/01/11 01:04:19;;;;;;;36.40;15.88;;;-0.30;99.90;;;;;;4986675;28;20031;-61
2021/01/11 01:06:45;;;;;;;34.57;16.93;;;-0.30;99.90;;;;;;4986806;28;20029;-63
2021/01/11 01:09:10;;;;;;;38.25;16.95;;;-0.30;99.90;;;;;;4987519;28;20022;-59
2021/01/11 01:11:40;;;;;;;35.53;17.17;;;-0.30;99.90;;;;;;4967664;28;20097;-60
2021/01/11 01:14:07;;;;;;;34.85;17.92;;;-0.30;99.90;;;;;;4980465;28;20056;-62
2021/01/11 01:16:32;;;;;;;35.27;17.30;;;-0.40;99.90;;;;;;4984352;28;20037;-60
2021/01/11 01:18:59;;;;;;;37.73;17.30;;;-0.40;99.90;;;;;;4987492;28;20124;-64
2021/01/11 01:21:24;;;;;;;41.53;18.30;;;-0.40;99.90;;;;;;5001966;28;20385;-61
2021/01/11 01:23:50;;;;;;;39.40;17.63;;;-0.40;99.90;;;;;;4982671;28;20088;-63
2021/01/11 01:26:21;;;;;;;32.73;16.33;;;-0.40;99.90;;;;;;4986555;28;20156;-62
2021/01/11 01:28:47;;;;;;;32.50;15.57;;;-0.40;99.90;;;;;;4982670;28;20030;-60
2021/01/11 01:31:13;;;;;;;40.23;16.90;;;-0.40;99.90;;;;;;4986984;28;20539;-59
2021/01/11 01:33:39;;;;;;;39.95;19.25;;;-0.40;99.90;;;;;;4986914;28;20608;-62
2021/01/11 01:36:05;;;;;;;37.40;17.40;;;-0.30;99.90;;;;;;4985640;28;20026;-62
2021/01/11 01:38:30;;;;;;;35.72;15.90;;;-0.30;99.90;;;;;;4987157;28;20034;-59
2021/01/11 01:40:56;;;;;;;37.28;17.58;;;-0.30;99.90;;;;;;4985453;28;20018;-59
2021/01/11 01:43:22;;;;;;;34.97;17.05;;;-0.20;99.90;;;;;;4987537;28;20023;-63
2021/01/11 01:45:47;;;;;;;30.48;14.40;;;-0.20;99.90;;;;;;4986028;28;20035;-60
2021/01/11 01:48:13;;;;;;;33.08;15.75;;;-0.20;99.90;;;;;;4987530;28;20018;-64
2021/01/11 01:50:40;;;;;;;31.60;15.75;;;-0.10;99.90;;;;;;4975688;28;20429;-61
2021/01/11 01:53:06;;;;;;;31.23;14.85;;;-0.10;99.90;;;;;;4985179;28;20036;-64
2021/01/11 01:55:32;;;;;;;31.13;15.02;;;-0.10;99.90;;;;;;4985109;28;20041;-59
2021/01/11 01:58:04;;;;;;;30.40;15.02;;;-0.10;99.90;;;;;;4986117;28;20027;-64
2021/01/11 02:00:30;;;;;;;32.22;14.43;;;0.00;99.90;;;;;;4986214;28;20397;-60
2021/01/11 02:02:55;;;;;;;25.25;11.85;;;-0.10;99.90;;;;;;4984556;28;20484;-58
2021/01/11 02:05:21;;;;;;;23.60;11.50;;;0.00;99.90;;;;;;4986556;28;20116;-59
2021/01/11 02:08:08;;;;;;;24.45;12.02;;;0.00;99.90;;;;;;4984413;28;20072;-59
2021/01/11 02:10:45;;;;;;;27.42;12.70;;;0.00;99.90;;;;;;4972215;28;20058;-61
2021/01/11 02:13:30;;;;;;;24.75;11.57;;;0.00;99.90;;;;;;4986027;28;20037;-60
2021/01/11 02:16:01;;;;;;;;;;;0.00;99.90;;;;;;4986653;28;20026;-64
2021/01/11 02:18:43;;;;;;;22.70;11.57;;;0.00;99.90;;;;;;4987339;28;19910;-64
2021/01/11 02:21:09;;;;;;;25.27;11.40;;;0.00;99.90;;;;;;4987187;28;20032;-59
2021/01/11 02:24:03;;;;;;;24.08;12.55;;;0.00;99.90;;;;;;4980628;28;20027;-58
2021/01/11 02:26:56;;;;;;;26.92;12.77;;;0.00;99.90;;;;;;4986507;28;20034;-58
2021/01/11 02:29:50;;;;;;;24.13;12.02;;;0.00;99.90;;;;;;4986015;28;20034;-58
2021/01/11 02:32:17;;;;;;;24.73;13.40;;;0.00;99.90;;;;;;4984266;28;20077;-61
2021/01/11 02:34:46;;;;;;;30.92;14.18;;;0.00;99.90;;;;;;4983037;28;20050;-59
2021/01/11 02:37:12;;;;;;;27.08;12.25;;;0.00;99.90;;;;;;4985920;28;20429;-62
2021/01/11 02:39:40;;;;;;;27.88;14.18;;;0.00;99.90;;;;;;4985295;28;20030;-61
2021/01/11 02:42:06;;;;;;;27.40;13.32;;;0.00;99.90;;;;;;4979284;28;20037;-61
2021/01/11 02:44:32;;;;;;;31.33;13.90;;;0.00;99.90;;;;;;4986249;28;20022;-58
2021/01/11 02:46:57;;;;;;;31.45;14.60;;;0.00;99.90;;;;;;4990485;28;20061;-58
2021/01/11 02:49:30;;;;;;;24.17;13.07;;;0.00;99.90;;;;;;4989379;28;20038;-59
2021/01/11 02:52:23;;;;;;;27.52;14.95;;;0.00;99.90;;;;;;4982024;28;20014;-61
2021/01/11 02:54:55;;;;;;;28.88;13.00;;;0.00;99.90;;;;;;4989205;28;20034;-63
2021/01/11 02:57:27;;;;;;;26.60;13.65;;;0.00;99.90;;;;;;4988055;28;20057;-63
2021/01/11 02:59:58;;;;;;;19.67;11.98;;;0.00;99.90;;;;;;4964921;28;20027;-64
2021/01/11 03:02:27;;;;;;;26.38;13.48;;;0.00;99.90;;;;;;4963153;28;20030;-60
2021/01/11 03:04:54;;;;;;;23.02;12.43;;;0.00;99.90;;;;;;4986050;28;20085;-58
2021/01/11 03:07:19;;;;;;;21.17;11.55;;;0.00;99.90;;;;;;4988224;28;20034;-62
2021/01/11 03:09:47;;;;;;;24.40;11.13;;;0.00;99.90;;;;;;4988143;28;20022;-62
2021/01/11 03:12:13;;;;;;;26.05;12.55;;;-0.10;99.90;;;;;;4975326;28;20126;-59
2021/01/11 03:14:39;;;;;;;28.02;13.00;;;-0.10;99.90;;;;;;4989544;28;20623;-60
2021/01/11 03:17:06;;;;;;;24.98;12.15;;;-0.10;99.90;;;;;;4989110;28;20033;-62
2021/01/11 03:19:31;;;;;;;27.00;11.70;;;-0.10;99.90;;;;;;4989647;28;20093;-60
2021/01/11 03:21:57;;;;;;;27.90;12.63;;;-0.10;99.90;;;;;;4987039;28;20030;-61
2021/01/11 03:24:23;;;;;;;25.88;12.52;;;-0.10;99.90;;;;;;4987280;28;20038;-63
2021/01/11 03:26:50;;;;;;;28.05;13.10;;;-0.10;99.90;;;;;;4989254;28;20088;-62
2021/01/11 03:29:17;;;;;;;27.00;13.02;;;-0.10;99.90;;;;;;4989010;28;20117;-56
2021/01/11 03:31:44;;;;;;;24.20;12.32;;;0.00;99.90;;;;;;4989603;28;20085;-63
2021/01/11 03:34:10;;;;;;;24.55;11.40;;;0.00;99.90;;;;;;4983703;28;20068;-61
2021/01/11 03:36:37;;;;;;;27.27;13.85;;;0.00;99.90;;;;;;4988719;28;20036;-60
2021/01/11 03:39:05;;;;;;;20.42;11.32;;;0.00;99.90;;;;;;4988168;28;20805;-61
2021/01/11 03:41:36;;;;;;;25.95;11.77;;;0.00;99.90;;;;;;4989831;28;20036;-60
2021/01/11 03:44:02;;;;;;;23.00;11.95;;;0.00;99.90;;;;;;4987654;28;20029;-60
2021/01/11 03:46:29;;;;;;;19.95;10.82;;;0.00;99.90;;;;;;4989010;28;20027;-59
2021/01/11 03:48:55;;;;;;;22.48;10.85;;;0.00;99.90;;;;;;4988996;28;20125;-59
2021/01/11 03:51:21;;;;;;;19.75;10.57;;;0.00;99.90;;;;;;4982462;28;20110;-62
2021/01/11 03:53:46;;;;;;;19.45;10.15;;;0.00;99.90;;;;;;4990017;28;20018;-60
2021/01/11 03:56:12;;;;;;;20.05;10.43;;;0.00;99.90;;;;;;4986641;28;20414;-62
2021/01/11 03:58:38;;;;;;;20.00;9.57;;;0.00;99.90;;;;;;4988638;28;20089;-57
2021/01/11 04:01:04;;;;;;;21.17;9.63;;;0.00;99.90;;;;;;4988724;28;20015;-58
2021/01/11 04:03:30;;;;;;;16.52;8.20;;;0.00;99.90;;;;;;4988968;28;20041;-59
2021/01/11 04:05:57;;;;;;;18.02;8.80;;;-0.10;99.90;;;;;;4988658;28;20061;-59
2021/01/11 04:08:23;;;;;;;15.50;8.85;;;-0.10;99.90;;;;;;4988782;28;20055;-61
2021/01/11 04:10:50;;;;;;;20.08;8.63;;;0.00;99.90;;;;;;4985380;28;20085;-62
2021/01/11 04:13:16;;;;;;;15.82;7.97;;;-0.10;99.90;;;;;;4958484;28;20030;-58
2021/01/11 04:15:41;;;;;;;17.27;8.05;;;-0.10;99.90;;;;;;4988213;28;20488;-61
2021/01/11 04:18:07;;;;;;;16.38;8.13;;;-0.10;99.90;;;;;;4985949;28;20121;-60
2021/01/11 04:20:33;;;;;;;17.48;8.63;;;-0.10;99.90;;;;;;4987564;28;20066;-61
2021/01/11 04:22:59;;;;;;;20.10;9.25;;;-0.10;99.90;;;;;;4981939;28;20125;-60
2021/01/11 04:25:25;;;;;;;18.50;9.38;;;-0.10;99.90;;;;;;4988531;28;20066;-60
2021/01/11 04:27:52;;;;;;;19.10;9.02;;;-0.10;99.90;;;;;;4988508;28;20650;-59
2021/01/11 04:30:18;;;;;;;19.33;9.82;;;-0.10;99.90;;;;;;4983751;28;20022;-59
2021/01/11 04:32:44;;;;;;;21.27;9.95;;;-0.20;99.90;;;;;;4987561;28;20065;-62
2021/01/11 04:35:10;;;;;;;20.92;10.57;;;-0.20;99.90;;;;;;4985277;28;20066;-62
2021/01/11 04:37:37;;;;;;;18.27;8.83;;;-0.30;99.90;;;;;;4988934;28;20058;-61
2021/01/11 04:40:05;;;;;;;18.63;9.68;;;-0.30;99.90;;;;;;4987100;28;20031;-62
2021/01/11 04:42:47;;;;;;;22.15;10.70;;;-0.40;99.90;;;;;;4988348;28;20026;-60
2021/01/11 04:45:17;;;;;;;20.73;9.65;;;-0.40;99.90;;;;;;4981735;28;20113;-61
2021/01/11 04:47:44;;;;;;;19.65;10.95;;;-0.50;99.90;;;;;;4983816;28;20026;-59
2021/01/11 04:50:10;;;;;;;17.87;10.33;;;-0.60;99.90;;;;;;4985313;28;20201;-64
2021/01/11 04:52:37;;;;;;;21.37;11.00;;;-0.60;99.90;;;;;;4984728;28;20030;-62
2021/01/11 04:55:05;;;;;;;19.80;9.80;;;-0.70;99.90;;;;;;4985944;28;20049;-61
2021/01/11 04:57:38;;;;;;;19.57;9.20;;;-0.70;99.90;;;;;;4988420;28;20823;-60
2021/01/11 05:00:10;;;;;;;20.47;9.33;;;-0.70;99.90;;;;;;4982382;28;20396;-64
2021/01/11 05:02:44;;;;;;;16.57;9.13;;;-0.70;99.90;;;;;;4986595;28;20453;-59
2021/01/11 05:05:10;;;;;;;17.17;9.80;;;-0.70;99.90;;;;;;4981590;28;20066;-60
2021/01/11 05:07:36;;;;;;;17.43;9.73;;;-0.70;99.90;;;;;;4987879;28;20034;-61
2021/01/11 05:10:02;;;;;;;18.50;9.40;;;-0.70;99.90;;;;;;4990482;28;20424;-62
2021/01/11 05:12:27;;;;;;;22.97;9.33;;;-0.70;99.90;;;;;;4972179;28;20377;-62
2021/01/11 05:15:20;;;;;;;15.17;8.60;;;-0.70;99.90;;;;;;4985864;28;20022;-61
2021/01/11 05:17:45;;;;;;;20.37;9.23;;;-0.60;99.90;;;;;;4987958;28;20031;-62
2021/01/11 05:20:14;;;;;;;20.57;9.70;;;-0.50;99.90;;;;;;5002118;28;20053;-61
2021/01/11 05:22:40;;;;;;;20.92;9.45;;;-0.50;99.90;;;;;;4983223;28;20080;-60
2021/01/11 05:25:23;;;;;;;14.07;8.03;;;-0.50;99.90;;;;;;4986372;28;20114;-61
2021/01/11 05:28:15;;;;;;;20.10;9.63;;;-0.40;99.90;;;;;;4983991;28;20037;-60
2021/01/11 05:30:50;;;;;;;13.45;7.60;;;-0.40;99.90;;;;;;4985912;28;20578;-57
2021/01/11 05:33:21;;;;;;;12.60;7.13;;;-0.40;99.90;;;;;;4988643;28;20392;-61
2021/01/11 05:36:00;;;;;;;14.73;7.93;;;-0.40;99.90;;;;;;4987806;28;20484;-56
2021/01/11 05:38:33;;;;;;;15.00;7.33;;;-0.40;99.90;;;;;;4987131;28;20034;-57
2021/01/11 05:41:18;;;;;;;16.70;8.27;;;-0.40;99.90;;;;;;4986284;28;20037;-62
2021/01/11 05:44:07;;;;;;;26.07;11.40;;;-0.40;99.90;;;;;;4986926;28;20113;-59
2021/01/11 05:46:33;;;;;;;72.00;31.20;;;-0.50;99.90;;;;;;4986437;28;20504;-58
2021/01/11 05:49:00;;;;;;;315.30;90.30;;;-0.60;99.90;;;;;;4984340;28;20046;-61
2021/01/11 05:51:27;;;;;;;522.87;141.87;;;-0.60;99.90;;;;;;4986495;28;20027;-61
2021/01/11 05:53:53;;;;;;;80.43;27.65;;;-0.70;99.90;;;;;;4983597;28;20073;-59
2021/01/11 05:56:18;;;;;;;129.43;36.50;;;-0.70;99.90;;;;;;4985179;28;20408;-60
2021/01/11 05:59:07;;;;;;;103.23;30.80;;;-0.70;99.90;;;;;;4984176;28;20139;-59
2021/01/11 06:01:35;;;;;;;76.17;25.67;;;-0.70;99.90;;;;;;4981538;28;20026;-61
2021/01/11 06:04:00;;;;;;;39.53;16.63;;;-0.70;99.90;;;;;;5001420;28;20084;-59
2021/01/11 06:06:26;;;;;;;25.60;11.13;;;-0.70;99.90;;;;;;4983494;28;20101;-61
2021/01/11 06:08:53;;;;;;;14.50;7.80;;;-0.80;99.90;;;;;;4986151;28;20034;-61
2021/01/11 06:11:25;;;;;;;12.93;6.97;;;-0.80;99.90;;;;;;4973066;28;20018;-56
2021/01/11 06:13:52;;;;;;;12.97;7.33;;;-0.70;99.90;;;;;;4986514;28;20034;-60
2021/01/11 06:16:21;;;;;;;15.43;8.07;;;-0.70;99.90;;;;;;4987036;28;20118;-61
2021/01/11 06:18:51;;;;;;;18.07;9.70;;;-0.70;99.90;;;;;;4984461;28;20030;-60
2021/01/11 06:21:18;;;;;;;16.57;8.53;;;-0.70;99.90;;;;;;4986894;28;20030;-58
2021/01/11 06:23:44;;;;;;;13.63;6.73;;;-0.70;99.90;;;;;;4986528;28;20030;-60
2021/01/11 06:26:25;;;;;;;10.67;5.97;;;-0.70;99.90;;;;;;4986242;28;20097;-61
2021/01/11 06:28:51;;;;;;;15.47;6.90;;;-0.80;99.90;;;;;;4985623;28;20350;-59
2021/01/11 06:31:17;;;;;;;16.10;7.23;;;-0.80;99.90;;;;;;4986805;28;20105;-57
2021/01/11 06:33:43;;;;;;;15.23;7.37;;;-0.80;99.90;;;;;;4986421;28;20133;-61
2021/01/11 06:36:34;;;;;;;13.07;7.73;;;-0.90;99.90;;;;;;4978248;28;20053;-61
2021/01/11 06:39:09;;;;;;;13.47;7.37;;;-0.90;99.90;;;;;;4981253;28;20066;-59
2021/01/11 06:41:36;;;;;;;15.43;7.57;;;-1.00;99.90;;;;;;4986880;28;20050;-59
2021/01/11 06:44:08;;;;;;;18.27;8.27;;;-1.00;99.90;;;;;;4984365;28;20046;-58
2021/01/11 06:46:42;;;;;;;17.20;8.47;;;-1.00;99.90;;;;;;4986443;28;20026;-60
2021/01/11 06:49:30;;;;;;;17.20;8.30;;;-1.00;99.90;;;;;;4986483;28;20034;-60
2021/01/11 06:52:04;;;;;;;17.63;7.93;;;-1.10;99.90;;;;;;4978329;28;20034;-62
2021/01/11 06:54:38;;;;;;;19.30;9.00;;;-1.10;99.90;;;;;;4990764;28;20022;-60
2021/01/11 06:57:17;;;;;;;16.63;9.30;;;-1.10;99.90;;;;;;4986584;28;20019;-61
2021/01/11 06:59:47;;;;;;;18.90;9.93;;;-1.10;99.90;;;;;;4985802;28;20325;-60
2021/01/11 07:02:24;;;;;;;21.90;11.43;;;-1.10;99.90;;;;;;4986298;28;20512;-57
2021/01/11 07:04:51;;;;;;;31.63;16.47;;;-1.10;99.90;;;;;;4985900;28;20030;-57
2021/01/11 07:07:24;;;;;;;26.77;14.40;;;-1.10;99.90;;;;;;4985884;28;20491;-59
2021/01/11 07:09:58;;;;;;;33.90;17.58;;;-1.10;99.90;;;;;;4986152;28;20105;-60
2021/01/11 07:12:25;;;;;;;36.72;16.92;;;-1.00;99.90;;;;;;4972026;28;20066;-59
2021/01/11 07:14:54;;;;;;;30.43;15.07;;;-1.00;99.90;;;;;;4983054;28;20043;-58
2021/01/11 07:17:44;;;;;;;24.50;12.30;;;-1.00;99.90;;;;;;4985511;28;20042;-54
2021/01/11 07:20:14;;;;;;;26.90;13.40;;;-1.00;99.90;;;;;;4976304;28;20033;-61
2021/01/11 07:22:41;;;;;;;25.97;12.30;;;-1.00;99.90;;;;;;4986473;28;20057;-61
2021/01/11 07:25:19;;;;;;;40.77;17.23;;;-1.00;99.90;;;;;;4984087;28;20030;-63
2021/01/11 07:27:45;;;;;;;37.17;16.20;;;-1.10;99.90;;;;;;4986549;28;20049;-60
2021/01/11 07:30:11;;;;;;;21.50;10.53;;;-1.10;99.90;;;;;;4987094;28;20022;-60
2021/01/11 07:32:36;;;;;;;18.27;9.80;;;-1.10;99.90;;;;;;4989781;28;20022;-60
2021/01/11 07:35:03;;;;;;;17.17;8.50;;;-1.00;99.90;;;;;;4985034;28;20034;-62
2021/01/11 07:37:28;;;;;;;34.87;16.40;;;-1.10;99.90;;;;;;4989788;28;20030;-60
2021/01/11 07:39:54;;;;;;;41.63;19.27;;;-1.10;99.90;;;;;;4986805;28;20038;-63
2021/01/11 07:42:20;;;;;;;19.03;10.97;;;-1.00;99.90;;;;;;4987630;28;20026;-63
2021/01/11 07:44:46;;;;;;;13.97;8.17;;;-1.00;99.90;;;;;;4988290;28;20455;-62
2021/01/11 07:47:16;;;;;;;21.80;10.97;;;-0.90;99.90;;;;;;4989979;28;20695;-60
2021/01/11 07:49:49;;;;;;;15.80;8.77;;;-0.90;99.90;;;;;;4988295;28;21264;-60
2021/01/11 07:52:17;;;;;;;18.38;9.23;;;-0.90;99.90;;;;;;4983403;28;20076;-62
2021/01/11 07:54:44;;;;;;;65.63;25.97;;;-0.90;99.90;;;;;;4988836;28;20451;-63
2021/01/11 07:57:11;;;;;;;89.00;37.20;;;-0.90;99.90;;;;;;4987278;28;20113;-58
2021/01/11 07:59:37;;;;;;;74.70;34.33;;;-0.80;99.90;;;;;;4986793;28;20048;-63
2021/01/11 08:02:08;;;;;;;41.50;19.48;;;-0.70;99.90;;;;;;4989544;28;20030;-62
2021/01/11 08:04:36;;;;;;;33.58;16.48;;;-0.70;99.90;;;;;;4988412;28;20038;-63
2021/01/11 08:07:14;;;;;;;40.20;19.57;;;-0.60;99.90;;;;;;4988717;28;20014;-60
2021/01/11 08:09:41;;;;;;;36.05;16.98;;;-0.60;99.90;;;;;;4988063;28;20511;-60
2021/01/11 08:12:12;;;;;;;36.38;18.67;;;-0.50;99.90;;;;;;4940843;28;20018;-61
2021/01/11 08:14:41;;;;;;;47.27;23.50;;;-0.50;99.90;;;;;;4999966;28;20052;-63
2021/01/11 08:17:15;;;;;;;99.25;49.58;;;-0.50;99.90;;;;;;4986464;28;20057;-60
2021/01/11 08:19:41;;;;;;;73.15;39.42;;;-0.40;99.90;;;;;;4984606;28;20031;-62
2021/01/11 08:22:09;;;;;;;48.95;27.35;;;-0.30;99.90;;;;;;4987893;28;20502;-59
2021/01/11 08:24:36;;;;;;;32.53;19.45;;;-0.20;99.90;;;;;;4984136;28;20023;-61
2021/01/11 08:27:07;;;;;;;20.95;10.57;;;-0.20;99.90;;;;;;4988982;28;20077;-62
2021/01/11 08:29:36;;;;;;;12.55;6.60;;;-0.20;99.90;;;;;;4988358;28;20109;-61
2021/01/11 08:32:10;;;;;;;13.98;6.60;;;-0.10;99.90;;;;;;4984715;28;20031;-62
2021/01/11 08:34:36;;;;;;;12.10;6.78;;;-0.20;99.90;;;;;;4984546;28;20019;-62
2021/01/11 08:37:27;;;;;;;13.18;7.30;;;-0.20;99.90;;;;;;4989209;28;20031;-62
2021/01/11 08:40:01;;;;;;;12.68;6.95;;;-0.20;99.90;;;;;;4986482;28;20057;-59
2021/01/11 08:42:28;;;;;;;16.58;8.65;;;-0.20;99.90;;;;;;4981677;28;20061;-60
2021/01/11 08:44:55;;;;;;;19.52;9.65;;;-0.10;99.90;;;;;;4987868;28;20037;-59
2021/01/11 08:47:28;;;;;;;38.95;14.77;;;-0.10;99.90;;;;;;4988064;28;20057;-58
2021/01/11 08:49:58;;;;;;;20.50;9.73;;;-0.10;99.90;;;;;;4982357;28;20570;-59
2021/01/11 08:52:29;;;;;;;15.63;8.15;;;-0.10;99.90;;;;;;4982898;28;20018;-60
2021/01/11 08:54:55;;;;;;;14.63;8.18;;;-0.10;99.90;;;;;;4987792;28;20010;-64
2021/01/11 08:57:26;;;;;;;13.90;7.40;;;0.00;99.90;;;;;;4985530;28;20101;-56
2021/01/11 08:59:52;;;;;;;11.63;7.25;;;-0.10;99.90;;;;;;4985048;28;20054;-62
2021/01/11 09:02:25;;;;;;;19.13;8.70;;;0.00;99.90;;;;;;4988471;28;20030;-62
2021/01/11 09:04:51;;;;;;;14.15;7.07;;;0.10;99.90;;;;;;4985314;28;20122;-60
2021/01/11 09:07:29;;;;;;;13.27;6.30;;;0.10;99.90;;;;;;4986488;28;20540;-62
2021/01/11 09:09:56;;;;;;;14.10;7.03;;;0.20;99.90;;;;;;4987173;28;20536;-63
2021/01/11 09:12:34;;;;;;;11.20;6.40;;;0.30;99.90;;;;;;4985921;28;20496;-63
2021/01/11 09:15:00;;;;;;;13.27;6.60;;;0.30;99.90;;;;;;4987613;28;20046;-59
2021/01/11 09:17:31;;;;;;;11.50;6.78;;;0.50;99.90;;;;;;4986600;28;20026;-55
2021/01/11 09:20:07;;;;;;;14.63;8.10;;;0.50;99.90;;;;;;4983424;28;20014;-60
2021/01/11 09:22:39;;;;;;;14.45;7.63;;;0.40;99.90;;;;;;4985432;28;20014;-62
2021/01/11 09:25:10;;;;;;;15.00;6.30;;;0.30;99.90;;;;;;4985551;28;20022;-60
2021/01/11 09:27:37;;;;;;;12.05;6.45;;;0.40;99.90;;;;;;4987853;28;20026;-60
2021/01/11 09:30:03;;;;;;;13.65;7.05;;;0.40;99.90;;;;;;4986245;28;20026;-59
2021/01/11 09:32:29;;;;;;;12.77;6.97;;;0.30;99.90;;;;;;4985334;28;20049;-59
2021/01/11 09:34:55;;;;;;;15.63;7.38;;;0.40;99.90;;;;;;4978942;28;20053;-56
2021/01/11 09:37:20;;;;;;;36.15;15.43;;;0.30;99.90;;;;;;4987048;28;20545;-59
2021/01/11 09:39:46;;;;;;;31.60;13.35;;;0.30;99.90;;;;;;4985432;28;20034;-60
2021/01/11 09:42:11;;;;;;;21.80;10.80;;;0.30;99.90;;;;;;4987393;28;20061;-62
2021/01/11 09:44:37;;;;;;;13.95;7.10;;;0.30;99.90;;;;;;4986271;28;20022;-60
2021/01/11 09:47:05;;;;;;;12.88;7.18;;;0.30;99.90;;;;;;4985940;28;20081;-60
2021/01/11 09:49:31;;;;;;;13.98;7.38;;;0.40;99.90;;;;;;4986409;28;20492;-64
2021/01/11 09:51:57;;;;;;;15.35;7.55;;;0.40;99.90;;;;;;4985984;28;20026;-60
2021/01/11 09:54:22;;;;;;;20.58;9.27;;;0.50;99.90;;;;;;4984734;28;20510;-60
2021/01/11 09:56:48;;;;;;;37.53;16.13;;;0.50;99.90;;;;;;4987317;28;20399;-58
2021/01/11 09:59:15;;;;;;;52.80;21.10;;;0.50;99.90;;;;;;4984263;28;20049;-61
2021/01/11 10:01:46;;;;;;;28.05;12.85;;;0.50;99.90;;;;;;4984649;28;20060;-61
2021/01/11 10:04:13;;;;;;;22.02;10.90;;;0.50;99.90;;;;;;4984644;28;20408;-59
2021/01/11 10:06:44;;;;;;;17.20;9.38;;;0.50;99.90;;;;;;4979667;28;20050;-63
2021/01/11 10:09:21;;;;;;;12.50;6.78;;;0.60;99.90;;;;;;5000673;28;20034;-63
2021/01/11 10:11:49;;;;;;;12.60;6.93;;;0.60;99.90;;;;;;4987207;28;20018;-63
2021/01/11 10:14:15;;;;;;;14.30;7.65;;;0.70;99.90;;;;;;4972937;28;20050;-63
2021/01/11 10:16:42;;;;;;;14.52;6.57;;;0.70;99.90;;;;;;4987105;28;20110;-62
2021/01/11 10:19:15;;;;;;;16.75;7.88;;;0.70;99.90;;;;;;4981838;28;20080;-63
2021/01/11 10:21:41;;;;;;;14.48;8.02;;;0.70;99.90;;;;;;4986813;28;20077;-62
2021/01/11 10:24:08;;;;;;;17.42;9.82;;;0.70;99.90;;;;;;5000270;28;20038;-60
2021/01/11 10:26:34;;;;;;;25.00;8.68;;;0.80;99.90;;;;;;4987987;28;20397;-60
2021/01/11 10:29:01;;;;;;;25.55;10.75;;;0.80;99.90;;;;;;4984347;28;20041;-63
2021/01/11 10:31:26;;;;;;;18.70;8.43;;;0.90;99.90;;;;;;4986758;28;20544;-61
2021/01/11 10:33:52;;;;;;;16.98;7.82;;;0.90;99.90;;;;;;4986799;28;20037;-62
2021/01/11 10:36:19;;;;;;;19.48;8.50;;;0.90;99.90;;;;;;4986572;28;20022;-60
2021/01/11 10:38:44;;;;;;;28.48;11.98;;;0.90;99.90;;;;;;4985213;28;20029;-61
2021/01/11 10:41:18;;;;;;;19.25;8.90;;;0.90;99.90;;;;;;4986490;28;20014;-63
2021/01/11 10:43:45;;;;;;;31.48;12.32;;;1.00;99.90;;;;;;4986718;28;20026;-63
2021/01/11 10:46:11;;;;;;;36.03;14.45;;;1.00;99.90;;;;;;4986028;28;20054;-56
2021/01/11 10:48:41;;;;;;;16.63;6.88;;;0.90;99.90;;;;;;4986790;28;20038;-62
2021/01/11 10:51:10;;;;;;;12.73;6.82;;;0.90;99.90;;;;;;4980747;28;20027;-62
2021/01/11 10:53:40;;;;;;;24.25;8.48;;;1.00;99.90;;;;;;4991888;28;20018;-63
2021/01/11 10:56:06;;;;;;;14.45;6.60;;;1.00;99.90;;;;;;4975317;28;20173;-61
2021/01/11 10:58:33;;;;;;;17.10;7.85;;;1.00;99.90;;;;;;4988019;28;20372;-62
2021/01/11 11:00:59;;;;;;;15.23;6.55;;;1.00;99.90;;;;;;4985181;28;20018;-62
2021/01/11 11:03:24;;;;;;;14.07;7.00;;;1.00;99.90;;;;;;4984474;28;20029;-58
2021/01/11 11:05:50;;;;;;;14.75;6.57;;;1.00;99.90;;;;;;4989287;28;20688;-61
2021/01/11 11:08:16;;;;;;;15.88;6.68;;;1.00;99.90;;;;;;5006197;28;20124;-63
2021/01/11 11:10:41;;;;;;;21.48;10.05;;;1.00;99.90;;;;;;4989266;28;20041;-62
2021/01/11 11:13:07;;;;;;;12.18;6.93;;;1.00;99.90;;;;;;4973090;28;20164;-62
2021/01/11 11:15:32;;;;;;;12.32;6.00;;;1.10;99.90;;;;;;4987360;28;20069;-61
2021/01/11 11:17:58;;;;;;;10.93;6.15;;;1.10;99.90;;;;;;4990225;28;20050;-63
2021/01/11 11:20:24;;;;;;;15.82;7.80;;;1.10;99.90;;;;;;4991759;28;20037;-60
2021/01/11 11:22:53;;;;;;;10.82;6.45;;;1.10;99.90;;;;;;4989405;28;20030;-64
2021/01/11 11:25:20;;;;;;;28.13;16.75;;;1.10;99.90;;;;;;4989964;28;20114;-62
2021/01/11 11:27:48;;;;;;;18.50;9.45;;;1.10;99.90;;;;;;4987499;28;20058;-63
2021/01/11 11:30:15;;;;;;;12.55;6.75;;;1.10;99.90;;;;;;4985356;28;20129;-63
2021/01/11 11:32:51;;;;;;;10.35;5.30;;;1.10;99.90;;;;;;4984543;28;20029;-62
2021/01/11 11:35:17;;;;;;;9.70;5.10;;;1.20;99.90;;;;;;4989220;28;20038;-62
2021/01/11 11:37:44;;;;;;;13.45;6.03;;;1.20;99.90;;;;;;5003994;28;20476;-60
2021/01/11 11:40:11;;;;;;;12.65;6.28;;;1.10;99.90;;;;;;5004988;28;20030;-60
2021/01/11 11:42:41;;;;;;;15.15;6.35;;;1.20;99.90;;;;;;4982257;28;20034;-62
2021/01/11 11:45:12;;;;;;;26.60;11.68;;;1.20;99.90;;;;;;4986848;28;20038;-60
2021/01/11 11:47:39;;;;;;;13.77;6.18;;;1.20;99.90;;;;;;4986366;28;20022;-62
2021/01/11 11:50:07;;;;;;;21.80;9.07;;;1.20;99.90;;;;;;4989154;28;20049;-60
2021/01/11 11:52:33;;;;;;;20.85;9.52;;;1.20;99.90;;;;;;4986061;28;20030;-62
2021/01/11 11:54:59;;;;;;;13.55;7.63;;;1.20;99.90;;;;;;4992375;28;20053;-61
2021/01/11 11:57:25;;;;;;;17.50;9.45;;;1.20;99.90;;;;;;4998026;28;20092;-59
2021/01/11 11:59:50;;;;;;;20.40;10.30;;;1.20;99.90;;;;;;4990246;28;20675;-61
2021/01/11 12:02:16;;;;;;;13.90;6.10;;;1.20;99.90;;;;;;4989725;28;20121;-62
2021/01/11 12:04:42;;;;;;;18.05;7.88;;;1.20;99.90;;;;;;4988524;28;20045;-62
2021/01/11 12:07:12;;;;;;;32.83;14.77;;;1.10;99.90;;;;;;4981277;28;20034;-62
2021/01/11 12:09:38;;;;;;;18.60;9.98;;;1.10;99.90;;;;;;4986939;28;20735;-61
2021/01/11 12:12:03;;;;;;;13.98;7.13;;;1.20;99.90;;;;;;4983539;28;20039;-62
2021/01/11 12:14:29;;;;;;;25.92;12.73;;;1.20;99.90;;;;;;4971026;28;20109;-59
2021/01/11 12:16:55;;;;;;;13.18;6.72;;;1.20;99.90;;;;;;4985242;28;20042;-62
2021/01/11 12:19:20;;;;;;;11.02;6.85;;;1.20;99.90;;;;;;4988675;28;20034;-61
2021/01/11 12:21:46;;;;;;;10.63;6.25;;;1.20;99.90;;;;;;4986774;28;20117;-60
2021/01/11 12:24:12;;;;;;;19.63;8.57;;;1.20;99.90;;;;;;4987954;28;20038;-60
2021/01/11 12:26:45;;;;;;;10.50;6.22;;;1.10;99.90;;;;;;4983525;28;20027;-59
2021/01/11 12:29:12;;;;;;;19.92;8.40;;;1.10;99.90;;;;;;4982675;28;20058;-62
2021/01/11 12:31:38;;;;;;;9.57;5.50;;;1.20;99.90;;;;;;4987334;28;20026;-60
2021/01/11 12:34:05;;;;;;;15.40;7.55;;;1.20;99.90;;;;;;4982654;28;20036;-61
2021/01/11 12:36:33;;;;;;;10.77;5.95;;;1.30;99.90;;;;;;4987879;28;20022;-59
2021/01/11 12:39:02;;;;;;;9.65;4.90;;;1.30;99.90;;;;;;4987809;28;20034;-62
2021/01/11 12:41:28;;;;;;;13.27;5.93;;;1.30;99.90;;;;;;4980522;28;20069;-59
2021/01/11 12:43:54;;;;;;;9.35;5.85;;;1.40;99.90;;;;;;4986259;28;20087;-61